sensor_id;sensor_type;location;lat;lon;timestamp;pressure;altitude;pressure_sealevel;temperature
20733;BMP180;10527;52.124;5.196;2024-02-21T00:01:54;101980.00;;;20.50
20733;BMP180;10527;52.124;5.196;2024-02-21T00:04:21;101974.00;;;20.50
20733;BMP180;10527;52.124;5.196;2024-02-21T00:06:49;101965.00;;;20.50
20733;BMP180;10527;52.124;5.196;2024-02-21T00:09:17;101970.00;;;20.40
20733;BMP180;10527;52.124;5.196;2024-02-21T00:11:46;101960.00;;;20.40
20733;BMP180;10527;52.124;5.196;2024-02-21T00:14:14;101954.00;;;20.50
20733;BMP180;10527;52.124;5.196;2024-02-21T00:16:43;101958.00;;;20.50
20733;BMP180;10527;52.124;5.196;2024-02-21T00:19:10;101961.00;;;20.50
20733;BMP180;10527;52.124;5.196;2024-02-21T00:21:38;101957.00;;;20.40
20733;BMP180;10527;52.124;5.196;2024-02-21T00:24:06;101952.00;;;20.50
20733;BMP180;10527;52.124;5.196;2024-02-21T00:26:33;101959.00;;;20.50
20733;BMP180;10527;52.124;5.196;2024-02-21T00:29:01;101956.00;;;20.50
20733;BMP180;10527;52.124;5.196;2024-02-21T00:31:30;101951.00;;;20.50
20733;BMP180;10527;52.124;5.196;2024-02-21T00:33:58;101946.00;;;20.50
20733;BMP180;10527;52.124;5.196;2024-02-21T00:36:25;101938.00;;;20.50
20733;BMP180;10527;52.124;5.196;2024-02-21T00:38:53;101940.00;;;20.50
20733;BMP180;10527;52.124;5.196;2024-02-21T00:41:20;101949.00;;;20.50
20733;BMP180;10527;52.124;5.196;2024-02-21T00:43:48;101961.00;;;20.50
20733;BMP180;10527;52.124;5.196;2024-02-21T00:46:17;101963.00;;;20.50
20733;BMP180;10527;52.124;5.196;2024-02-21T00:48:45;101942.00;;;20.40
20733;BMP180;10527;52.124;5.196;2024-02-21T00:51:13;101955.00;;;20.50
20733;BMP180;10527;52.124;5.196;2024-02-21T00:53:41;101957.00;;;20.50
20733;BMP180;10527;52.124;5.196;2024-02-21T00:56:09;101963.00;;;20.50
20733;BMP180;10527;52.124;5.196;2024-02-21T00:58:36;101957.00;;;20.50
20733;BMP180;10527;52.124;5.196;2024-02-21T01:01:03;101965.00;;;20.50
20733;BMP180;10527;52.124;5.196;2024-02-21T01:03:31;101963.00;;;20.50
20733;BMP180;10527;52.124;5.196;2024-02-21T01:05:59;101969.00;;;20.50
20733;BMP180;10527;52.124;5.196;2024-02-21T01:08:26;101965.00;;;20.50
20733;BMP180;10527;52.124;5.196;2024-02-21T01:10:53;101969.00;;;20.50
20733;BMP180;10527;52.124;5.196;2024-02-21T01:13:21;101961.00;;;20.50
20733;BMP180;10527;52.124;5.196;2024-02-21T01:15:48;101951.00;;;20.50
20733;BMP180;10527;52.124;5.196;2024-02-21T01:18:15;101947.00;;;20.50
20733;BMP180;10527;52.124;5.196;2024-02-21T01:20:43;101948.00;;;20.40
20733;BMP180;10527;52.124;5.196;2024-02-21T01:23:11;101952.00;;;20.40
20733;BMP180;10527;52.124;5.196;2024-02-21T01:25:38;101945.00;;;20.40
20733;BMP180;10527;52.124;5.196;2024-02-21T01:28:06;101938.00;;;20.40
20733;BMP180;10527;52.124;5.196;2024-02-21T01:30:34;101938.00;;;20.40
20733;BMP180;10527;52.124;5.196;2024-02-21T01:33:02;101929.00;;;20.40
20733;BMP180;10527;52.124;5.196;2024-02-21T01:35:29;101927.00;;;20.50
20733;BMP180;10527;52.124;5.196;2024-02-21T01:37:57;101922.00;;;20.50
20733;BMP180;10527;52.124;5.196;2024-02-21T01:40:24;101916.00;;;20.50
20733;BMP180;10527;52.124;5.196;2024-02-21T01:42:54;101911.00;;;20.50
20733;BMP180;10527;52.124;5.196;2024-02-21T01:45:22;101897.00;;;20.50
20733;BMP180;10527;52.124;5.196;2024-02-21T01:47:50;101894.00;;;20.60
20733;BMP180;10527;52.124;5.196;2024-02-21T01:50:18;101903.00;;;20.60
20733;BMP180;10527;52.124;5.196;2024-02-21T01:52:47;101899.00;;;20.60
20733;BMP180;10527;52.124;5.196;2024-02-21T01:55:16;101897.00;;;20.60
20733;BMP180;10527;52.124;5.196;2024-02-21T01:57:44;101892.00;;;20.60
20733;BMP180;10527;52.124;5.196;2024-02-21T02:00:15;101895.00;;;20.60
20733;BMP180;10527;52.124;5.196;2024-02-21T02:02:43;101890.00;;;20.60
20733;BMP180;10527;52.124;5.196;2024-02-21T02:05:12;101884.00;;;20.60
20733;BMP180;10527;52.124;5.196;2024-02-21T02:07:39;101892.00;;;20.60
20733;BMP180;10527;52.124;5.196;2024-02-21T02:10:07;101883.00;;;20.60
20733;BMP180;10527;52.124;5.196;2024-02-21T02:12:35;101875.00;;;20.60
20733;BMP180;10527;52.124;5.196;2024-02-21T02:15:03;101874.00;;;20.60
20733;BMP180;10527;52.124;5.196;2024-02-21T02:17:34;101858.00;;;20.60
20733;BMP180;10527;52.124;5.196;2024-02-21T02:20:01;101857.00;;;20.60
20733;BMP180;10527;52.124;5.196;2024-02-21T02:22:30;101862.00;;;20.60
20733;BMP180;10527;52.124;5.196;2024-02-21T02:24:59;101854.00;;;20.60
20733;BMP180;10527;52.124;5.196;2024-02-21T02:27:26;101855.00;;;20.60
20733;BMP180;10527;52.124;5.196;2024-02-21T02:29:54;101862.00;;;20.60
20733;BMP180;10527;52.124;5.196;2024-02-21T02:32:21;101858.00;;;20.60
20733;BMP180;10527;52.124;5.196;2024-02-21T02:34:49;101863.00;;;20.60
20733;BMP180;10527;52.124;5.196;2024-02-21T02:37:16;101858.00;;;20.60
20733;BMP180;10527;52.124;5.196;2024-02-21T02:39:44;101858.00;;;20.60
20733;BMP180;10527;52.124;5.196;2024-02-21T02:42:11;101861.00;;;20.60
20733;BMP180;10527;52.124;5.196;2024-02-21T02:44:39;101856.00;;;20.50
20733;BMP180;10527;52.124;5.196;2024-02-21T02:47:06;101854.00;;;20.50
20733;BMP180;10527;52.124;5.196;2024-02-21T02:49:34;101853.00;;;20.50
20733;BMP180;10527;52.124;5.196;2024-02-21T02:52:01;101840.00;;;20.50
20733;BMP180;10527;52.124;5.196;2024-02-21T02:54:29;101833.00;;;20.50
20733;BMP180;10527;52.124;5.196;2024-02-21T02:56:56;101832.00;;;20.50
20733;BMP180;10527;52.124;5.196;2024-02-21T02:59:23;101831.00;;;20.50
20733;BMP180;10527;52.124;5.196;2024-02-21T03:01:51;101823.00;;;20.50
20733;BMP180;10527;52.124;5.196;2024-02-21T03:04:18;101834.00;;;20.50
20733;BMP180;10527;52.124;5.196;2024-02-21T03:06:46;101831.00;;;20.50
20733;BMP180;10527;52.124;5.196;2024-02-21T03:09:14;101828.00;;;20.50
20733;BMP180;10527;52.124;5.196;2024-02-21T03:11:43;101827.00;;;20.50
20733;BMP180;10527;52.124;5.196;2024-02-21T03:14:11;101823.00;;;20.50
20733;BMP180;10527;52.124;5.196;2024-02-21T03:16:39;101816.00;;;20.50
20733;BMP180;10527;52.124;5.196;2024-02-21T03:19:07;101806.00;;;20.50
20733;BMP180;10527;52.124;5.196;2024-02-21T03:21:34;101797.00;;;20.50
20733;BMP180;10527;52.124;5.196;2024-02-21T03:24:02;101803.00;;;20.50
20733;BMP180;10527;52.124;5.196;2024-02-21T03:26:29;101795.00;;;20.50
20733;BMP180;10527;52.124;5.196;2024-02-21T03:28:57;101796.00;;;20.50
20733;BMP180;10527;52.124;5.196;2024-02-21T03:31:24;101786.00;;;20.50
20733;BMP180;10527;52.124;5.196;2024-02-21T03:33:58;101776.00;;;20.50
20733;BMP180;10527;52.124;5.196;2024-02-21T03:36:25;101773.00;;;20.50
20733;BMP180;10527;52.124;5.196;2024-02-21T03:38:54;101765.00;;;20.50
20733;BMP180;10527;52.124;5.196;2024-02-21T03:41:21;101769.00;;;20.50
20733;BMP180;10527;52.124;5.196;2024-02-21T03:43:49;101762.00;;;20.50
20733;BMP180;10527;52.124;5.196;2024-02-21T03:46:17;101764.00;;;20.50
20733;BMP180;10527;52.124;5.196;2024-02-21T03:48:44;101773.00;;;20.50
20733;BMP180;10527;52.124;5.196;2024-02-21T03:51:13;101762.00;;;20.50
20733;BMP180;10527;52.124;5.196;2024-02-21T03:53:41;101762.00;;;20.50
20733;BMP180;10527;52.124;5.196;2024-02-21T03:56:08;101775.00;;;20.50
20733;BMP180;10527;52.124;5.196;2024-02-21T03:58:35;101770.00;;;20.50
20733;BMP180;10527;52.124;5.196;2024-02-21T04:01:03;101758.00;;;20.50
20733;BMP180;10527;52.124;5.196;2024-02-21T04:03:31;101762.00;;;20.50
20733;BMP180;10527;52.124;5.196;2024-02-21T04:05:59;101765.00;;;20.50
20733;BMP180;10527;52.124;5.196;2024-02-21T04:08:27;101757.00;;;20.50
20733;BMP180;10527;52.124;5.196;2024-02-21T04:10:55;101766.00;;;20.50
20733;BMP180;10527;52.124;5.196;2024-02-21T04:13:23;101758.00;;;20.50
20733;BMP180;10527;52.124;5.196;2024-02-21T04:15:50;101744.00;;;20.50
20733;BMP180;10527;52.124;5.196;2024-02-21T04:18:18;101742.00;;;20.50
20733;BMP180;10527;52.124;5.196;2024-02-21T04:20:45;101744.00;;;20.50
20733;BMP180;10527;52.124;5.196;2024-02-21T04:23:12;101748.00;;;20.50
20733;BMP180;10527;52.124;5.196;2024-02-21T04:25:40;101745.00;;;20.50
20733;BMP180;10527;52.124;5.196;2024-02-21T04:28:07;101745.00;;;20.50
20733;BMP180;10527;52.124;5.196;2024-02-21T04:30:34;101746.00;;;20.50
20733;BMP180;10527;52.124;5.196;2024-02-21T04:33:02;101748.00;;;20.50
20733;BMP180;10527;52.124;5.196;2024-02-21T04:35:30;101741.00;;;20.50
20733;BMP180;10527;52.124;5.196;2024-02-21T04:37:57;101740.00;;;20.50
20733;BMP180;10527;52.124;5.196;2024-02-21T04:40:25;101729.00;;;20.50
20733;BMP180;10527;52.124;5.196;2024-02-21T04:42:53;101725.00;;;20.50
20733;BMP180;10527;52.124;5.196;2024-02-21T04:45:20;101714.00;;;20.50
20733;BMP180;10527;52.124;5.196;2024-02-21T04:47:48;101728.00;;;20.50
20733;BMP180;10527;52.124;5.196;2024-02-21T04:50:15;101717.00;;;20.40
20733;BMP180;10527;52.124;5.196;2024-02-21T04:52:43;101715.00;;;20.40
20733;BMP180;10527;52.124;5.196;2024-02-21T04:55:11;101712.00;;;20.40
20733;BMP180;10527;52.124;5.196;2024-02-21T04:57:38;101701.00;;;20.40
20733;BMP180;10527;52.124;5.196;2024-02-21T05:00:07;101707.00;;;20.40
20733;BMP180;10527;52.124;5.196;2024-02-21T05:02:34;101708.00;;;20.40
20733;BMP180;10527;52.124;5.196;2024-02-21T05:05:01;101713.00;;;20.40
20733;BMP180;10527;52.124;5.196;2024-02-21T05:07:30;101709.00;;;20.40
20733;BMP180;10527;52.124;5.196;2024-02-21T05:09:57;101713.00;;;20.40
20733;BMP180;10527;52.124;5.196;2024-02-21T05:12:25;101704.00;;;20.40
20733;BMP180;10527;52.124;5.196;2024-02-21T05:14:52;101710.00;;;20.40
20733;BMP180;10527;52.124;5.196;2024-02-21T05:17:20;101700.00;;;20.40
20733;BMP180;10527;52.124;5.196;2024-02-21T05:19:48;101695.00;;;20.40
20733;BMP180;10527;52.124;5.196;2024-02-21T05:22:15;101689.00;;;20.40
20733;BMP180;10527;52.124;5.196;2024-02-21T05:24:42;101689.00;;;20.40
20733;BMP180;10527;52.124;5.196;2024-02-21T05:27:10;101686.00;;;20.40
20733;BMP180;10527;52.124;5.196;2024-02-21T05:29:37;101674.00;;;20.40
20733;BMP180;10527;52.124;5.196;2024-02-21T05:32:06;101672.00;;;20.40
20733;BMP180;10527;52.124;5.196;2024-02-21T05:34:33;101664.00;;;20.40
20733;BMP180;10527;52.124;5.196;2024-02-21T05:37:01;101656.00;;;20.40
20733;BMP180;10527;52.124;5.196;2024-02-21T05:39:28;101659.00;;;20.40
20733;BMP180;10527;52.124;5.196;2024-02-21T05:41:56;101652.00;;;20.40
20733;BMP180;10527;52.124;5.196;2024-02-21T05:44:24;101642.00;;;20.40
20733;BMP180;10527;52.124;5.196;2024-02-21T05:46:53;101645.00;;;20.40
20733;BMP180;10527;52.124;5.196;2024-02-21T05:49:20;101638.00;;;20.40
20733;BMP180;10527;52.124;5.196;2024-02-21T05:51:49;101629.00;;;20.40
20733;BMP180;10527;52.124;5.196;2024-02-21T05:54:17;101624.00;;;20.40
20733;BMP180;10527;52.124;5.196;2024-02-21T05:56:45;101622.00;;;20.40
20733;BMP180;10527;52.124;5.196;2024-02-21T05:59:13;101628.00;;;20.50
20733;BMP180;10527;52.124;5.196;2024-02-21T06:01:40;101626.00;;;20.50
20733;BMP180;10527;52.124;5.196;2024-02-21T06:04:07;101631.00;;;20.50
20733;BMP180;10527;52.124;5.196;2024-02-21T06:06:35;101630.00;;;20.50
20733;BMP180;10527;52.124;5.196;2024-02-21T06:09:03;101619.00;;;20.50
20733;BMP180;10527;52.124;5.196;2024-02-21T06:11:32;101614.00;;;20.40
20733;BMP180;10527;52.124;5.196;2024-02-21T06:14:00;101614.00;;;20.50
20733;BMP180;10527;52.124;5.196;2024-02-21T06:16:27;101607.00;;;20.40
20733;BMP180;10527;52.124;5.196;2024-02-21T06:18:55;101612.00;;;20.50
20733;BMP180;10527;52.124;5.196;2024-02-21T06:21:22;101608.00;;;20.50
20733;BMP180;10527;52.124;5.196;2024-02-21T06:23:50;101609.00;;;20.50
20733;BMP180;10527;52.124;5.196;2024-02-21T06:26:17;101613.00;;;20.50
20733;BMP180;10527;52.124;5.196;2024-02-21T06:28:45;101623.00;;;20.50
20733;BMP180;10527;52.124;5.196;2024-02-21T06:31:14;101619.00;;;20.50
20733;BMP180;10527;52.124;5.196;2024-02-21T06:33:42;101630.00;;;20.50
20733;BMP180;10527;52.124;5.196;2024-02-21T06:36:09;101621.00;;;20.40
20733;BMP180;10527;52.124;5.196;2024-02-21T06:38:37;101623.00;;;20.40
20733;BMP180;10527;52.124;5.196;2024-02-21T06:41:04;101613.00;;;20.40
20733;BMP180;10527;52.124;5.196;2024-02-21T06:43:32;101614.00;;;20.40
20733;BMP180;10527;52.124;5.196;2024-02-21T06:46:00;101620.00;;;20.30
20733;BMP180;10527;52.124;5.196;2024-02-21T06:48:27;101621.00;;;20.30
20733;BMP180;10527;52.124;5.196;2024-02-21T06:50:55;101620.00;;;20.30
20733;BMP180;10527;52.124;5.196;2024-02-21T06:53:22;101603.00;;;20.30
20733;BMP180;10527;52.124;5.196;2024-02-21T06:55:50;101609.00;;;20.30
20733;BMP180;10527;52.124;5.196;2024-02-21T06:58:17;101603.00;;;20.30
20733;BMP180;10527;52.124;5.196;2024-02-21T07:00:45;101591.00;;;20.30
20733;BMP180;10527;52.124;5.196;2024-02-21T07:03:13;101593.00;;;20.30
20733;BMP180;10527;52.124;5.196;2024-02-21T07:05:40;101589.00;;;20.30
20733;BMP180;10527;52.124;5.196;2024-02-21T07:08:08;101598.00;;;20.30
20733;BMP180;10527;52.124;5.196;2024-02-21T07:10:35;101591.00;;;20.30
20733;BMP180;10527;52.124;5.196;2024-02-21T07:13:03;101584.00;;;20.30
20733;BMP180;10527;52.124;5.196;2024-02-21T07:15:30;101591.00;;;20.30
20733;BMP180;10527;52.124;5.196;2024-02-21T07:17:58;101582.00;;;20.30
20733;BMP180;10527;52.124;5.196;2024-02-21T07:20:26;101583.00;;;20.30
20733;BMP180;10527;52.124;5.196;2024-02-21T07:22:54;101577.00;;;20.30
20733;BMP180;10527;52.124;5.196;2024-02-21T07:25:22;101585.00;;;20.30
20733;BMP180;10527;52.124;5.196;2024-02-21T07:27:49;101576.00;;;20.30
20733;BMP180;10527;52.124;5.196;2024-02-21T07:30:17;101571.00;;;20.30
20733;BMP180;10527;52.124;5.196;2024-02-21T07:32:45;101570.00;;;20.30
20733;BMP180;10527;52.124;5.196;2024-02-21T07:35:12;101565.00;;;20.30
20733;BMP180;10527;52.124;5.196;2024-02-21T07:37:40;101560.00;;;20.30
20733;BMP180;10527;52.124;5.196;2024-02-21T07:40:13;101553.00;;;20.30
20733;BMP180;10527;52.124;5.196;2024-02-21T07:42:42;101536.00;;;20.30
20733;BMP180;10527;52.124;5.196;2024-02-21T07:45:12;101536.00;;;20.30
20733;BMP180;10527;52.124;5.196;2024-02-21T07:47:39;101541.00;;;20.20
20733;BMP180;10527;52.124;5.196;2024-02-21T07:50:07;101521.00;;;20.20
20733;BMP180;10527;52.124;5.196;2024-02-21T07:52:35;101534.00;;;20.20
20733;BMP180;10527;52.124;5.196;2024-02-21T07:55:02;101509.00;;;20.20
20733;BMP180;10527;52.124;5.196;2024-02-21T07:57:30;101522.00;;;20.20
20733;BMP180;10527;52.124;5.196;2024-02-21T07:59:58;101525.00;;;20.20
20733;BMP180;10527;52.124;5.196;2024-02-21T08:02:25;101533.00;;;20.20
20733;BMP180;10527;52.124;5.196;2024-02-21T08:04:53;101527.00;;;20.20
20733;BMP180;10527;52.124;5.196;2024-02-21T08:07:20;101525.00;;;20.20
20733;BMP180;10527;52.124;5.196;2024-02-21T08:09:48;101514.00;;;20.20
20733;BMP180;10527;52.124;5.196;2024-02-21T08:12:15;101506.00;;;20.20
20733;BMP180;10527;52.124;5.196;2024-02-21T08:14:43;101510.00;;;20.30
20733;BMP180;10527;52.124;5.196;2024-02-21T08:17:11;101506.00;;;20.30
20733;BMP180;10527;52.124;5.196;2024-02-21T08:19:38;101510.00;;;20.30
20733;BMP180;10527;52.124;5.196;2024-02-21T08:22:06;101501.00;;;20.30
20733;BMP180;10527;52.124;5.196;2024-02-21T08:24:34;101497.00;;;20.30
20733;BMP180;10527;52.124;5.196;2024-02-21T08:27:02;101499.00;;;20.30
20733;BMP180;10527;52.124;5.196;2024-02-21T08:29:29;101493.00;;;20.30
20733;BMP180;10527;52.124;5.196;2024-02-21T08:31:57;101486.00;;;20.30
20733;BMP180;10527;52.124;5.196;2024-02-21T08:34:24;101485.00;;;20.30
20733;BMP180;10527;52.124;5.196;2024-02-21T08:36:52;101483.00;;;20.30
20733;BMP180;10527;52.124;5.196;2024-02-21T08:39:19;101482.00;;;20.30
20733;BMP180;10527;52.124;5.196;2024-02-21T08:41:47;101484.00;;;20.30
20733;BMP180;10527;52.124;5.196;2024-02-21T08:44:24;101468.00;;;20.30
20733;BMP180;10527;52.124;5.196;2024-02-21T08:46:54;101465.00;;;20.30
20733;BMP180;10527;52.124;5.196;2024-02-21T08:49:23;101461.00;;;20.30
20733;BMP180;10527;52.124;5.196;2024-02-21T08:51:52;101455.00;;;20.30
20733;BMP180;10527;52.124;5.196;2024-02-21T08:54:20;101461.00;;;20.30
20733;BMP180;10527;52.124;5.196;2024-02-21T08:56:47;101457.00;;;20.30
20733;BMP180;10527;52.124;5.196;2024-02-21T08:59:15;101459.00;;;20.40
20733;BMP180;10527;52.124;5.196;2024-02-21T09:01:43;101454.00;;;20.40
20733;BMP180;10527;52.124;5.196;2024-02-21T09:04:11;101450.00;;;20.40
20733;BMP180;10527;52.124;5.196;2024-02-21T09:06:39;101451.00;;;20.40
20733;BMP180;10527;52.124;5.196;2024-02-21T09:09:09;101443.00;;;20.40
20733;BMP180;10527;52.124;5.196;2024-02-21T09:11:37;101445.00;;;20.40
20733;BMP180;10527;52.124;5.196;2024-02-21T09:14:05;101436.00;;;20.40
20733;BMP180;10527;52.124;5.196;2024-02-21T09:16:32;101431.00;;;20.40
20733;BMP180;10527;52.124;5.196;2024-02-21T09:19:00;101428.00;;;20.40
20733;BMP180;10527;52.124;5.196;2024-02-21T09:21:28;101430.00;;;20.40
20733;BMP180;10527;52.124;5.196;2024-02-21T09:23:56;101422.00;;;20.40
20733;BMP180;10527;52.124;5.196;2024-02-21T09:26:26;101417.00;;;20.40
20733;BMP180;10527;52.124;5.196;2024-02-21T09:28:54;101420.00;;;20.40
20733;BMP180;10527;52.124;5.196;2024-02-21T09:31:22;101404.00;;;20.40
20733;BMP180;10527;52.124;5.196;2024-02-21T09:33:50;101407.00;;;20.40
20733;BMP180;10527;52.124;5.196;2024-02-21T09:36:17;101393.00;;;20.40
20733;BMP180;10527;52.124;5.196;2024-02-21T09:38:45;101389.00;;;20.40
20733;BMP180;10527;52.124;5.196;2024-02-21T09:41:17;101385.00;;;20.50
20733;BMP180;10527;52.124;5.196;2024-02-21T09:43:52;101378.00;;;20.50
20733;BMP180;10527;52.124;5.196;2024-02-21T09:49:31;101359.00;;;20.50
20733;BMP180;10527;52.124;5.196;2024-02-21T09:52:04;101344.00;;;20.60
20733;BMP180;10527;52.124;5.196;2024-02-21T09:54:33;101340.00;;;20.50
20733;BMP180;10527;52.124;5.196;2024-02-21T09:57:02;101330.00;;;20.60
20733;BMP180;10527;52.124;5.196;2024-02-21T09:59:33;101316.00;;;20.60
20733;BMP180;10527;52.124;5.196;2024-02-21T10:02:01;101321.00;;;20.60
20733;BMP180;10527;52.124;5.196;2024-02-21T10:04:30;101306.00;;;20.60
20733;BMP180;10527;52.124;5.196;2024-02-21T10:06:58;101304.00;;;20.60
20733;BMP180;10527;52.124;5.196;2024-02-21T10:09:26;101306.00;;;20.60
20733;BMP180;10527;52.124;5.196;2024-02-21T10:12:08;101295.00;;;20.70
20733;BMP180;10527;52.124;5.196;2024-02-21T10:14:40;101293.00;;;20.70
20733;BMP180;10527;52.124;5.196;2024-02-21T10:17:08;101288.00;;;20.70
20733;BMP180;10527;52.124;5.196;2024-02-21T10:19:38;101286.00;;;20.70
20733;BMP180;10527;52.124;5.196;2024-02-21T10:22:08;101280.00;;;20.70
20733;BMP180;10527;52.124;5.196;2024-02-21T10:24:37;101275.00;;;20.80
20733;BMP180;10527;52.124;5.196;2024-02-21T10:27:11;101268.00;;;20.80
20733;BMP180;10527;52.124;5.196;2024-02-21T10:29:40;101273.00;;;20.80
20733;BMP180;10527;52.124;5.196;2024-02-21T10:32:10;101271.00;;;20.80
20733;BMP180;10527;52.124;5.196;2024-02-21T10:34:40;101247.00;;;20.80
20733;BMP180;10527;52.124;5.196;2024-02-21T10:37:09;101243.00;;;20.90
20733;BMP180;10527;52.124;5.196;2024-02-21T10:39:39;101244.00;;;20.90
20733;BMP180;10527;52.124;5.196;2024-02-21T10:42:07;101222.00;;;20.90
20733;BMP180;10527;52.124;5.196;2024-02-21T10:44:38;101220.00;;;21.00
20733;BMP180;10527;52.124;5.196;2024-02-21T10:47:11;101206.00;;;21.00
20733;BMP180;10527;52.124;5.196;2024-02-21T10:49:41;101194.00;;;21.00
20733;BMP180;10527;52.124;5.196;2024-02-21T10:55:38;101149.00;;;21.10
20733;BMP180;10527;52.124;5.196;2024-02-21T10:58:06;101160.00;;;21.10
20733;BMP180;10527;52.124;5.196;2024-02-21T11:00:35;101160.00;;;21.00
20733;BMP180;10527;52.124;5.196;2024-02-21T11:03:03;101201.00;;;21.10
20733;BMP180;10527;52.124;5.196;2024-02-21T11:05:32;101232.00;;;21.10
20733;BMP180;10527;52.124;5.196;2024-02-21T11:08:00;101227.00;;;21.10
20733;BMP180;10527;52.124;5.196;2024-02-21T11:10:28;101219.00;;;21.10
20733;BMP180;10527;52.124;5.196;2024-02-21T11:13:09;101223.00;;;21.10
20733;BMP180;10527;52.124;5.196;2024-02-21T11:15:36;101208.00;;;21.10
20733;BMP180;10527;52.124;5.196;2024-02-21T11:18:04;101208.00;;;21.10
20733;BMP180;10527;52.124;5.196;2024-02-21T11:20:35;101195.00;;;21.10
20733;BMP180;10527;52.124;5.196;2024-02-21T11:23:04;101189.00;;;21.10
20733;BMP180;10527;52.124;5.196;2024-02-21T11:25:31;101193.00;;;21.10
20733;BMP180;10527;52.124;5.196;2024-02-21T11:28:02;101197.00;;;21.00
20733;BMP180;10527;52.124;5.196;2024-02-21T11:30:31;101188.00;;;21.00
20733;BMP180;10527;52.124;5.196;2024-02-21T11:33:08;101178.00;;;21.00
20733;BMP180;10527;52.124;5.196;2024-02-21T11:35:36;101167.00;;;21.00
20733;BMP180;10527;52.124;5.196;2024-02-21T11:38:12;101156.00;;;21.00
20733;BMP180;10527;52.124;5.196;2024-02-21T11:40:45;101141.00;;;20.90
20733;BMP180;10527;52.124;5.196;2024-02-21T11:43:14;101138.00;;;20.90
20733;BMP180;10527;52.124;5.196;2024-02-21T11:45:42;101138.00;;;20.90
20733;BMP180;10527;52.124;5.196;2024-02-21T11:48:10;101129.00;;;20.90
20733;BMP180;10527;52.124;5.196;2024-02-21T11:50:37;101106.00;;;20.90
20733;BMP180;10527;52.124;5.196;2024-02-21T11:53:06;101096.00;;;20.90
20733;BMP180;10527;52.124;5.196;2024-02-21T11:55:34;101068.00;;;21.00
20733;BMP180;10527;52.124;5.196;2024-02-21T11:58:02;101071.00;;;21.00
20733;BMP180;10527;52.124;5.196;2024-02-21T12:00:31;101057.00;;;21.00
20733;BMP180;10527;52.124;5.196;2024-02-21T12:02:59;101043.00;;;21.00
20733;BMP180;10527;52.124;5.196;2024-02-21T12:05:30;101045.00;;;21.00
20733;BMP180;10527;52.124;5.196;2024-02-21T12:07:58;101043.00;;;21.00
20733;BMP180;10527;52.124;5.196;2024-02-21T12:10:26;101024.00;;;21.10
20733;BMP180;10527;52.124;5.196;2024-02-21T12:13:07;101012.00;;;21.10
20733;BMP180;10527;52.124;5.196;2024-02-21T12:15:35;101028.00;;;21.20
20733;BMP180;10527;52.124;5.196;2024-02-21T12:18:03;101019.00;;;21.20
20733;BMP180;10527;52.124;5.196;2024-02-21T12:20:31;101018.00;;;21.30
20733;BMP180;10527;52.124;5.196;2024-02-21T12:23:02;101000.00;;;21.30
20733;BMP180;10527;52.124;5.196;2024-02-21T12:25:31;100993.00;;;21.30
20733;BMP180;10527;52.124;5.196;2024-02-21T12:27:59;100997.00;;;21.40
20733;BMP180;10527;52.124;5.196;2024-02-21T12:30:28;100978.00;;;21.40
20733;BMP180;10527;52.124;5.196;2024-02-21T12:32:57;100981.00;;;21.40
20733;BMP180;10527;52.124;5.196;2024-02-21T12:35:26;100967.00;;;21.40
20733;BMP180;10527;52.124;5.196;2024-02-21T12:37:54;100954.00;;;21.40
20733;BMP180;10527;52.124;5.196;2024-02-21T12:40:21;100946.00;;;21.40
20733;BMP180;10527;52.124;5.196;2024-02-21T12:42:49;100933.00;;;21.40
20733;BMP180;10527;52.124;5.196;2024-02-21T12:45:16;100939.00;;;21.40
20733;BMP180;10527;52.124;5.196;2024-02-21T12:47:44;100925.00;;;21.40
20733;BMP180;10527;52.124;5.196;2024-02-21T12:50:12;100916.00;;;21.40
20733;BMP180;10527;52.124;5.196;2024-02-21T12:52:39;100918.00;;;21.50
20733;BMP180;10527;52.124;5.196;2024-02-21T12:55:07;100900.00;;;21.50
20733;BMP180;10527;52.124;5.196;2024-02-21T12:57:37;100903.00;;;21.50
20733;BMP180;10527;52.124;5.196;2024-02-21T13:00:05;100895.00;;;21.50
20733;BMP180;10527;52.124;5.196;2024-02-21T13:02:36;100881.00;;;21.50
20733;BMP180;10527;52.124;5.196;2024-02-21T13:05:06;100868.00;;;21.50
20733;BMP180;10527;52.124;5.196;2024-02-21T13:07:34;100861.00;;;21.50
20733;BMP180;10527;52.124;5.196;2024-02-21T13:10:03;100862.00;;;21.60
20733;BMP180;10527;52.124;5.196;2024-02-21T13:12:32;100862.00;;;21.60
20733;BMP180;10527;52.124;5.196;2024-02-21T13:14:59;100860.00;;;21.60
20733;BMP180;10527;52.124;5.196;2024-02-21T13:17:27;100862.00;;;21.70
20733;BMP180;10527;52.124;5.196;2024-02-21T13:19:58;100864.00;;;21.70
20733;BMP180;10527;52.124;5.196;2024-02-21T13:22:26;100853.00;;;21.70
20733;BMP180;10527;52.124;5.196;2024-02-21T13:24:54;100847.00;;;21.70
20733;BMP180;10527;52.124;5.196;2024-02-21T13:27:24;100831.00;;;21.60
20733;BMP180;10527;52.124;5.196;2024-02-21T13:29:52;100817.00;;;21.60
20733;BMP180;10527;52.124;5.196;2024-02-21T13:32:20;100821.00;;;21.60
20733;BMP180;10527;52.124;5.196;2024-02-21T13:34:47;100800.00;;;21.60
20733;BMP180;10527;52.124;5.196;2024-02-21T13:37:15;100799.00;;;21.60
20733;BMP180;10527;52.124;5.196;2024-02-21T13:39:43;100790.00;;;21.60
20733;BMP180;10527;52.124;5.196;2024-02-21T13:42:10;100785.00;;;21.60
20733;BMP180;10527;52.124;5.196;2024-02-21T13:44:38;100768.00;;;21.60
20733;BMP180;10527;52.124;5.196;2024-02-21T13:47:05;100771.00;;;21.60
20733;BMP180;10527;52.124;5.196;2024-02-21T13:49:35;100777.00;;;21.60
20733;BMP180;10527;52.124;5.196;2024-02-21T13:52:03;100761.00;;;21.50
20733;BMP180;10527;52.124;5.196;2024-02-21T13:54:30;100763.00;;;21.50
20733;BMP180;10527;52.124;5.196;2024-02-21T13:56:58;100758.00;;;21.50
20733;BMP180;10527;52.124;5.196;2024-02-21T13:59:25;100739.00;;;21.50
20733;BMP180;10527;52.124;5.196;2024-02-21T14:01:54;100745.00;;;21.50
20733;BMP180;10527;52.124;5.196;2024-02-21T14:04:21;100729.00;;;21.50
20733;BMP180;10527;52.124;5.196;2024-02-21T14:06:49;100716.00;;;21.50
20733;BMP180;10527;52.124;5.196;2024-02-21T14:09:16;100699.00;;;21.50